Moosomin, Canada
Current Conditions -  °F | °C
As of 1:00 AM on Tuesday 21 Oct 2014 (Local Time) from CYBR Reporting Station
Clear Clear  
Wind Chill: 39°   Ceiling: Unl
Heat Index: 45°   Visibility: 15mi
Dew Point: 41°   Wind: 12mph
Humidity: 87%   Direction: 120°ESE
Pressure: 29.92"   Gusts: NA
Location:  50.15°N, 101.67°W
Report Text: CYBR 210700Z 12010KT 15SM SKC 07/05 A2992 RMK SLP143
Loading
Personal Weather Stations






























Interactive Weather Map
Tropical Storm Tracking
New forecast layout! Learn more

10-Day Weather Forecast

Advertisements
Track Severe Weather on mobile